createdAt,value
2023-04-03T00:01:11.238Z,7.02
2023-04-03T00:03:38.895Z,7.07
2023-04-03T00:06:11.686Z,7.12
2023-04-03T00:08:39.896Z,7.18
2023-04-03T00:11:08.119Z,6.95
2023-04-03T00:13:35.411Z,6.95
2023-04-03T00:16:04.342Z,7.04
2023-04-03T00:18:31.705Z,7.09
2023-04-03T00:20:59.093Z,7.01
2023-04-03T00:23:26.326Z,7.00
2023-04-03T00:25:53.929Z,7.13
2023-04-03T00:28:21.454Z,7.20
2023-04-03T00:30:52.403Z,7.02
2023-04-03T00:33:25.435Z,6.95
2023-04-03T00:35:53.010Z,6.85
2023-04-03T00:38:20.353Z,7.04
2023-04-03T00:40:49.388Z,7.14
2023-04-03T00:43:23.233Z,7.21
2023-04-03T00:45:52.440Z,7.33
2023-04-03T00:48:22.987Z,7.25
2023-04-03T00:50:50.873Z,7.12
2023-04-03T00:53:23.584Z,6.99
2023-04-03T00:55:51.866Z,7.11
2023-04-03T00:58:21.877Z,7.04
2023-04-03T01:00:51.043Z,7.10
2023-04-03T01:03:18.330Z,7.10
2023-04-03T01:05:46.270Z,7.17
2023-04-03T01:08:13.567Z,7.27
2023-04-03T01:10:40.972Z,7.40
2023-04-03T01:13:28.089Z,7.30
2023-04-03T01:15:55.734Z,6.96
2023-04-03T01:18:25.345Z,6.98
2023-04-03T01:21:01.930Z,7.27
2023-04-03T01:23:58.370Z,7.35
2023-04-03T01:26:26.744Z,7.44
2023-04-03T01:28:55.456Z,7.51
2023-04-03T01:31:36.507Z,7.58
2023-04-03T01:34:04.219Z,7.33
2023-04-03T01:36:33.082Z,7.15
2023-04-03T01:39:01.688Z,7.02
2023-04-03T01:41:30.438Z,6.98
2023-04-03T01:44:06.525Z,6.96
2023-04-03T01:46:34.056Z,6.87
2023-04-03T01:49:01.996Z,7.07
2023-04-03T01:51:29.566Z,7.05
2023-04-03T01:53:57.039Z,7.26
2023-04-03T01:56:24.320Z,7.32
2023-04-03T01:58:51.706Z,7.08
2023-04-03T02:01:19.186Z,6.98
2023-04-03T02:03:46.507Z,7.01
2023-04-03T02:06:13.981Z,7.06
2023-04-03T02:08:42.789Z,6.93
2023-04-03T02:11:10.398Z,6.98
2023-04-03T02:13:37.794Z,6.75
2023-04-03T02:16:10.894Z,6.97
2023-04-03T02:18:38.511Z,6.84
2023-04-03T02:21:06.158Z,6.62
2023-04-03T02:23:34.649Z,6.61
2023-04-03T02:26:20.379Z,6.66
2023-04-03T02:28:47.815Z,6.65
2023-04-03T02:31:15.626Z,6.65
2023-04-03T02:33:44.516Z,6.65
2023-04-03T02:36:14.514Z,6.54
2023-04-03T02:38:44.780Z,6.67
2023-04-03T02:41:12.762Z,6.73
2023-04-03T02:43:40.253Z,6.77
2023-04-03T02:46:08.230Z,6.87
2023-04-03T02:48:36.512Z,6.98
2023-04-03T02:51:03.905Z,7.08
2023-04-03T02:53:31.192Z,6.92
2023-04-03T02:56:00.206Z,6.97
2023-04-03T02:58:27.452Z,6.97
2023-04-03T03:00:57.400Z,7.00
2023-04-03T03:03:25.193Z,6.48
2023-04-03T03:06:05.634Z,6.66
2023-04-03T03:08:35.387Z,6.73
2023-04-03T03:11:03.198Z,6.58
2023-04-03T03:13:31.058Z,6.68
2023-04-03T03:15:58.668Z,6.67
2023-04-03T03:18:26.349Z,6.71
2023-04-03T03:20:59.060Z,6.77
2023-04-03T03:23:27.241Z,6.68
2023-04-03T03:25:59.390Z,6.53
2023-04-03T03:28:26.990Z,6.33
2023-04-03T03:30:54.419Z,6.26
2023-04-03T03:33:22.753Z,6.42
2023-04-03T03:35:50.922Z,6.50
2023-04-03T03:38:18.304Z,6.56
2023-04-03T03:40:45.912Z,6.58
2023-04-03T03:43:13.341Z,6.71
2023-04-03T03:45:41.713Z,6.86
2023-04-03T03:48:09.247Z,6.40
2023-04-03T03:50:36.695Z,6.42
2023-04-03T03:53:03.946Z,6.66
2023-04-03T03:55:31.402Z,6.57
2023-04-03T03:57:59.420Z,6.69
2023-04-03T04:00:30.577Z,6.67
2023-04-03T04:02:59.530Z,6.71
2023-04-03T04:05:27.706Z,6.49
2023-04-03T04:07:55.445Z,6.65
2023-04-03T04:10:24.468Z,6.60
2023-04-03T04:12:52.553Z,6.59
2023-04-03T04:15:24.059Z,6.70
2023-04-03T04:17:52.149Z,6.56
2023-04-03T04:20:19.515Z,6.69
2023-04-03T04:22:47.605Z,6.74
2023-04-03T04:25:15.495Z,6.60
2023-04-03T04:27:43.448Z,6.92
2023-04-03T04:30:12.312Z,6.46
2023-04-03T04:32:39.804Z,6.71
2023-04-03T04:35:07.570Z,6.45
2023-04-03T04:37:38.420Z,6.51
2023-04-03T04:40:07.021Z,6.62
2023-04-03T04:42:34.453Z,6.55
2023-04-03T04:45:02.174Z,6.40
2023-04-03T04:47:30.789Z,6.59
2023-04-03T04:49:58.220Z,6.46
2023-04-03T04:52:26.661Z,6.38
2023-04-03T04:54:54.157Z,6.31
2023-04-03T04:57:21.654Z,6.37
2023-04-03T04:59:48.992Z,6.48
2023-04-03T05:02:16.642Z,6.44
2023-04-03T05:04:45.657Z,6.61
2023-04-03T05:07:19.278Z,6.80
2023-04-03T05:09:46.834Z,6.82
2023-04-03T05:12:15.705Z,6.66
2023-04-03T05:14:49.493Z,6.46
2023-04-03T05:17:17.389Z,6.44
2023-04-03T05:19:50.568Z,6.45
2023-04-03T05:22:21.525Z,6.34
2023-04-03T05:24:49.455Z,6.60
2023-04-03T05:27:18.304Z,6.76
2023-04-03T05:29:51.453Z,6.31
2023-04-03T05:32:23.236Z,6.36
2023-04-03T05:34:56.466Z,6.60
2023-04-03T05:37:23.811Z,6.68
2023-04-03T05:39:52.953Z,6.61
2023-04-03T05:42:20.580Z,6.60
2023-04-03T05:44:48.241Z,6.73
2023-04-03T05:47:15.766Z,6.75
2023-04-03T05:49:43.334Z,6.56
2023-04-03T05:52:23.344Z,6.89
2023-04-03T05:54:51.599Z,6.56
2023-04-03T05:57:24.851Z,6.60
2023-04-03T05:59:52.528Z,6.45
2023-04-03T06:02:22.972Z,6.34
2023-04-03T06:04:52.401Z,6.42
2023-04-03T06:07:24.949Z,6.50
2023-04-03T06:09:52.359Z,6.46
2023-04-03T06:12:19.981Z,6.36
2023-04-03T06:14:47.582Z,6.35
2023-04-03T06:17:16.918Z,6.39
2023-04-03T06:19:45.460Z,6.25
2023-04-03T06:22:13.167Z,6.25
2023-04-03T06:24:40.443Z,6.33
2023-04-03T06:27:07.925Z,6.43
2023-04-03T06:29:35.188Z,6.34
2023-04-03T06:32:02.430Z,6.40
2023-04-03T06:34:29.712Z,6.68
2023-04-03T06:36:56.919Z,6.63
2023-04-03T06:39:24.532Z,6.54
2023-04-03T06:41:52.275Z,6.77
2023-04-03T06:44:27.199Z,6.65
2023-04-03T06:46:55.446Z,6.72
2023-04-03T06:49:22.731Z,6.69
2023-04-03T06:51:50.038Z,6.81
2023-04-03T06:54:17.316Z,6.54
2023-04-03T06:56:44.708Z,6.77
2023-04-03T06:59:14.618Z,6.62
2023-04-03T07:01:42.994Z,6.31
2023-04-03T07:04:10.184Z,6.08
2023-04-03T07:06:37.489Z,6.41
2023-04-03T07:09:04.790Z,6.29
2023-04-03T07:11:32.287Z,6.41
2023-04-03T07:13:59.590Z,6.81
2023-04-03T07:16:27.080Z,6.69
2023-04-03T07:18:54.428Z,6.49
2023-04-03T07:21:21.701Z,6.62
2023-04-03T07:26:17.234Z,6.56
2023-04-03T07:28:45.343Z,6.85
2023-04-03T07:31:14.657Z,7.21
2023-04-03T07:33:42.706Z,7.45
2023-04-03T07:36:11.746Z,6.89
2023-04-03T07:38:39.072Z,7.13
2023-04-03T07:41:06.886Z,7.49
2023-04-03T07:43:35.358Z,7.76
2023-04-03T07:46:03.442Z,7.09
2023-04-03T07:48:30.997Z,7.08
2023-04-03T07:51:02.714Z,7.37
2023-04-03T07:53:30.408Z,7.76
2023-04-03T07:55:59.013Z,7.67
2023-04-03T07:58:26.652Z,7.37
2023-04-03T08:00:53.970Z,7.55
2023-04-03T08:03:21.485Z,7.61
2023-04-03T08:05:50.298Z,7.66
2023-04-03T08:08:22.488Z,7.85
2023-04-03T08:10:51.453Z,8.19
2023-04-03T08:13:19.213Z,7.76
2023-04-03T08:15:46.617Z,7.61
2023-04-03T08:18:15.720Z,8.23
2023-04-03T08:20:43.279Z,8.39
2023-04-03T08:23:11.328Z,7.78
2023-04-03T08:25:42.613Z,7.94
2023-04-03T08:28:13.470Z,7.88
2023-04-03T08:30:42.162Z,8.10
2023-04-03T08:33:09.856Z,8.11
2023-04-03T08:35:41.778Z,7.77
2023-04-03T08:38:10.484Z,8.22
2023-04-03T08:40:38.232Z,8.44
2023-04-03T08:43:26.208Z,8.09
2023-04-03T08:45:55.033Z,7.83
2023-04-03T08:48:29.249Z,8.03
2023-04-03T08:51:03.202Z,8.09
2023-04-03T08:53:35.198Z,7.96
2023-04-03T08:56:09.143Z,8.24
2023-04-03T08:58:48.474Z,7.88
2023-04-03T09:01:22.832Z,7.88
2023-04-03T09:03:50.617Z,8.36
2023-04-03T09:06:31.552Z,8.51
2023-04-03T09:09:20.378Z,8.06
2023-04-03T09:12:13.143Z,8.24
2023-04-03T09:15:06.833Z,8.15
2023-04-03T09:17:54.594Z,8.17
2023-04-03T09:20:43.275Z,8.10
2023-04-03T09:23:20.845Z,8.14
2023-04-03T09:25:49.160Z,8.12
2023-04-03T09:28:16.798Z,7.80
2023-04-03T09:30:44.114Z,7.78
2023-04-03T09:33:12.458Z,7.53
2023-04-03T09:35:48.211Z,7.45
2023-04-03T09:38:22.093Z,7.44
2023-04-03T09:40:52.487Z,7.44
2023-04-03T09:43:31.513Z,7.44
2023-04-03T09:46:27.615Z,7.59
2023-04-03T09:51:34.271Z,7.43
2023-04-03T09:54:01.537Z,7.48
2023-04-03T09:56:30.641Z,7.68
2023-04-03T09:59:00.943Z,7.82
2023-04-03T10:01:33.781Z,7.83
2023-04-03T10:04:19.517Z,7.58
2023-04-03T10:06:48.393Z,7.68
2023-04-03T10:09:21.573Z,7.61
2023-04-03T10:12:13.309Z,7.75
2023-04-03T10:14:55.178Z,7.89
2023-04-03T10:17:22.458Z,7.85
2023-04-03T10:19:55.879Z,7.95
2023-04-03T10:22:42.153Z,7.97
2023-04-03T10:25:41.979Z,7.92
2023-04-03T10:28:26.952Z,7.92
2023-04-03T10:31:31.089Z,7.88
2023-04-03T10:34:24.644Z,8.14
2023-04-03T10:37:21.490Z,8.47
2023-04-03T10:40:40.746Z,8.31
2023-04-03T10:43:13.316Z,8.43
2023-04-03T10:45:49.650Z,8.58
2023-04-03T10:48:47.879Z,8.47
2023-04-03T10:51:35.570Z,8.12
2023-04-03T10:54:28.733Z,8.13
2023-04-03T10:57:11.905Z,8.38
2023-04-03T10:59:52.144Z,8.61
2023-04-03T11:02:32.919Z,8.97
2023-04-03T11:05:14.589Z,8.85
2023-04-03T11:07:44.942Z,8.69
2023-04-03T11:10:17.756Z,8.46
2023-04-03T11:12:48.129Z,8.74
2023-04-03T11:15:18.261Z,8.88
2023-04-03T11:17:55.697Z,8.73
2023-04-03T11:20:35.466Z,8.76
2023-04-03T11:23:23.158Z,8.83
2023-04-03T11:25:53.595Z,8.90
2023-04-03T11:28:20.917Z,8.90
2023-04-03T11:31:19.193Z,8.85
2023-04-03T11:33:53.469Z,8.94
2023-04-03T11:36:35.356Z,9.18
2023-04-03T11:39:27.018Z,8.97
2023-04-03T11:42:06.857Z,9.37
2023-04-03T11:44:39.392Z,9.43
2023-04-03T11:47:12.717Z,9.50
2023-04-03T11:49:52.149Z,9.65
2023-04-03T11:52:42.181Z,9.88
2023-04-03T11:55:23.379Z,9.79
2023-04-03T11:57:59.500Z,9.45
2023-04-03T12:00:48.247Z,9.38
2023-04-03T12:03:27.990Z,9.60
2023-04-03T12:06:07.891Z,9.69
2023-04-03T12:08:35.338Z,9.77
2023-04-03T12:11:11.776Z,9.79
2023-04-03T12:13:55.346Z,9.86
2023-04-03T12:16:28.527Z,9.73
2023-04-03T12:19:42.661Z,9.77
2023-04-03T12:22:21.791Z,10.07
2023-04-03T12:24:55.862Z,9.92
2023-04-03T12:27:28.190Z,10.09
2023-04-03T12:29:55.422Z,10.43
2023-04-03T12:32:31.526Z,10.36
2023-04-03T12:34:58.800Z,10.12
2023-04-03T12:37:36.806Z,9.99
2023-04-03T12:40:34.789Z,10.10
2023-04-03T12:43:05.591Z,10.16
2023-04-03T12:45:44.431Z,10.19
2023-04-03T12:48:17.077Z,10.20
2023-04-03T12:50:46.886Z,10.13
2023-04-03T12:53:27.190Z,10.45
2023-04-03T12:55:56.277Z,10.45
2023-04-03T12:58:27.634Z,10.37
2023-04-03T13:01:03.056Z,10.79
2023-04-03T13:03:30.783Z,10.68
2023-04-03T13:06:01.382Z,10.57
2023-04-03T13:08:29.687Z,10.45
2023-04-03T13:11:23.354Z,10.62
2023-04-03T13:14:03.059Z,10.74
2023-04-03T13:16:30.854Z,10.81
2023-04-03T13:18:58.130Z,10.66
2023-04-03T13:21:30.853Z,10.65
2023-04-03T13:24:13.807Z,10.66
2023-04-03T13:26:43.350Z,10.70
2023-04-03T13:29:31.433Z,10.84
2023-04-03T13:32:00.928Z,11.10
2023-04-03T13:34:33.502Z,11.40
2023-04-03T13:37:02.052Z,11.25
2023-04-03T13:39:33.026Z,11.21
2023-04-03T13:42:03.679Z,11.44
2023-04-03T13:44:35.780Z,11.45
2023-04-03T13:47:08.907Z,11.40
2023-04-03T13:49:39.140Z,11.62
2023-04-03T13:52:23.288Z,11.73
2023-04-03T13:54:58.560Z,11.48
2023-04-03T13:57:25.959Z,11.62
2023-04-03T13:59:53.355Z,11.62
2023-04-03T14:02:22.853Z,11.25
2023-04-03T14:04:53.775Z,11.43
2023-04-03T14:07:22.296Z,11.51
2023-04-03T14:09:49.583Z,11.43
2023-04-03T14:12:30.939Z,11.22
2023-04-03T14:14:59.267Z,11.38
2023-04-03T14:17:27.391Z,11.57
2023-04-03T14:19:55.003Z,11.64
2023-04-03T14:22:23.379Z,11.81
2023-04-03T14:24:50.508Z,11.81
2023-04-03T14:27:19.723Z,11.94
2023-04-03T14:29:46.987Z,11.57
2023-04-03T14:32:15.701Z,11.75
2023-04-03T14:34:43.843Z,11.82
2023-04-03T14:37:15.793Z,11.84
2023-04-03T14:39:43.389Z,11.93
2023-04-03T14:42:19.163Z,11.86
2023-04-03T14:44:46.621Z,12.03
2023-04-03T14:47:23.315Z,12.30
2023-04-03T14:49:57.431Z,12.12
2023-04-03T14:52:25.628Z,12.04
2023-04-03T14:54:53.528Z,11.84
2023-04-03T14:57:28.872Z,12.11
2023-04-03T14:59:55.900Z,11.98
2023-04-03T15:02:27.716Z,12.28
2023-04-03T15:04:55.735Z,12.16
2023-04-03T15:07:23.172Z,12.46
2023-04-03T15:09:50.553Z,12.38
2023-04-03T15:12:17.555Z,12.44
2023-04-03T15:14:51.972Z,12.20
2023-04-03T15:17:24.940Z,12.01
2023-04-03T15:19:52.064Z,12.12
2023-04-03T15:22:19.552Z,12.22
2023-04-03T15:24:46.784Z,12.33
2023-04-03T15:27:14.224Z,12.19
2023-04-03T15:29:41.849Z,12.35
2023-04-03T15:32:10.010Z,12.36
2023-04-03T15:34:37.527Z,12.15
2023-04-03T15:37:04.811Z,12.12
2023-04-03T15:39:32.092Z,12.33
2023-04-03T15:42:05.847Z,12.61
2023-04-03T15:44:34.677Z,12.64
2023-04-03T15:47:01.729Z,12.47
2023-04-03T15:49:28.990Z,12.04
2023-04-03T15:51:56.107Z,12.07
2023-04-03T15:54:24.971Z,12.20
2023-04-03T15:56:52.478Z,11.83
2023-04-03T15:59:19.859Z,11.88
2023-04-03T16:01:47.124Z,12.07
2023-04-03T16:04:15.603Z,12.38
2023-04-03T16:06:43.268Z,12.30
2023-04-03T16:09:10.501Z,12.31
2023-04-03T16:11:40.219Z,12.12
2023-04-03T16:14:07.829Z,12.26
2023-04-03T16:16:36.904Z,12.48
2023-04-03T16:19:04.026Z,12.16
2023-04-03T16:21:32.172Z,12.17
2023-04-03T16:23:59.732Z,12.11
2023-04-03T16:26:27.122Z,12.29
2023-04-03T16:28:54.661Z,12.45
2023-04-03T16:31:22.046Z,12.25
2023-04-03T16:33:49.138Z,12.06
2023-04-03T16:36:16.463Z,11.92
2023-04-03T16:38:43.579Z,11.96
2023-04-03T16:41:10.630Z,12.11
2023-04-03T16:43:37.958Z,12.28
2023-04-03T16:46:05.571Z,12.41
2023-04-03T16:48:35.082Z,12.25
2023-04-03T16:51:02.405Z,12.26
2023-04-03T16:53:29.555Z,12.16
2023-04-03T16:55:58.054Z,12.20
2023-04-03T16:58:25.063Z,12.23
2023-04-03T17:00:52.283Z,12.06
2023-04-03T17:03:19.375Z,11.82
2023-04-03T17:05:49.581Z,11.98
2023-04-03T17:08:17.354Z,12.25
2023-04-03T17:10:44.302Z,12.54
2023-04-03T17:13:11.524Z,12.37
2023-04-03T17:15:38.907Z,12.50
2023-04-03T17:18:06.301Z,12.45
2023-04-03T17:20:34.874Z,12.41
2023-04-03T17:23:02.062Z,12.16
2023-04-03T17:25:29.260Z,12.33
2023-04-03T17:27:56.876Z,12.15
2023-04-03T17:30:24.271Z,11.77
2023-04-03T17:32:51.368Z,11.70
2023-04-03T17:35:18.463Z,11.81
2023-04-03T17:37:45.717Z,12.01
2023-04-03T17:40:14.477Z,11.99
2023-04-03T17:42:41.726Z,12.10
2023-04-03T17:45:09.013Z,11.83
2023-04-03T17:47:36.261Z,11.99
2023-04-03T17:50:03.793Z,12.00
2023-04-03T17:52:31.962Z,11.88
2023-04-03T17:54:59.132Z,11.91
2023-04-03T17:57:26.905Z,11.99
2023-04-03T17:59:54.248Z,11.99
2023-04-03T18:02:21.509Z,12.02
2023-04-03T18:04:51.166Z,11.70
2023-04-03T18:07:18.372Z,11.79
2023-04-03T18:09:45.891Z,11.90
2023-04-03T18:12:12.955Z,11.94
2023-04-03T18:14:40.121Z,11.66
2023-04-03T18:17:07.626Z,11.45
2023-04-03T18:19:34.867Z,11.57
2023-04-03T18:22:06.297Z,11.47
2023-04-03T18:24:34.075Z,11.77
2023-04-03T18:27:11.932Z,11.78
2023-04-03T18:29:39.053Z,11.66
2023-04-03T18:32:06.234Z,11.74
2023-04-03T18:34:33.484Z,11.89
2023-04-03T18:37:03.322Z,11.84
2023-04-03T18:39:30.483Z,11.81
2023-04-03T18:41:58.197Z,11.95
2023-04-03T18:44:25.492Z,11.80
2023-04-03T18:46:53.931Z,11.74
2023-04-03T18:49:21.028Z,11.79
2023-04-03T18:51:48.213Z,11.62
2023-04-03T18:54:16.369Z,11.70
2023-04-03T18:56:43.392Z,11.90
2023-04-03T18:59:10.650Z,11.94
2023-04-03T19:01:38.131Z,11.92
2023-04-03T19:04:05.188Z,11.67
2023-04-03T19:06:32.953Z,11.70
2023-04-03T19:08:59.960Z,11.49
2023-04-03T19:11:29.568Z,11.38
2023-04-03T19:14:04.569Z,11.40
2023-04-03T19:16:41.357Z,11.55
2023-04-03T19:19:08.871Z,11.74
2023-04-03T19:21:41.484Z,11.79
2023-04-03T19:24:09.702Z,11.45
2023-04-03T19:26:37.078Z,11.15
2023-04-03T19:29:04.259Z,11.45
2023-04-03T19:31:33.717Z,11.56
2023-04-03T19:34:02.772Z,11.10
2023-04-03T19:36:30.567Z,11.27
2023-04-03T19:38:57.822Z,11.53
2023-04-03T19:41:27.354Z,11.51
2023-04-03T19:43:54.818Z,11.42
2023-04-03T19:46:25.835Z,11.26
2023-04-03T19:48:52.927Z,11.48
2023-04-03T19:51:20.045Z,11.73
2023-04-03T19:53:48.512Z,11.61
2023-04-03T19:56:18.528Z,11.25
2023-04-03T19:58:45.876Z,10.88
2023-04-03T20:01:13.033Z,10.71
2023-04-03T20:03:40.211Z,10.75
2023-04-03T20:06:07.260Z,10.63
2023-04-03T20:08:37.045Z,10.58
2023-04-03T20:11:04.116Z,10.63
2023-04-03T20:13:31.560Z,10.73
2023-04-03T20:16:02.203Z,10.59
2023-04-03T20:18:29.515Z,10.75
2023-04-03T20:20:58.618Z,10.58
2023-04-03T20:23:26.684Z,10.33
2023-04-03T20:26:08.512Z,10.23
2023-04-03T20:28:38.628Z,10.15
2023-04-03T20:31:06.845Z,9.84
2023-04-03T20:33:34.012Z,9.97
2023-04-03T20:36:02.012Z,10.20
2023-04-03T20:38:29.079Z,10.26
2023-04-03T20:40:56.379Z,10.06
2023-04-03T20:43:23.798Z,10.07
2023-04-03T20:45:51.044Z,9.97
2023-04-03T20:48:18.662Z,9.98
2023-04-03T20:50:46.637Z,9.99
2023-04-03T20:53:14.718Z,9.91
2023-04-03T20:55:42.265Z,9.92
2023-04-03T20:58:09.673Z,9.94
2023-04-03T21:00:38.159Z,10.00
2023-04-03T21:03:05.785Z,10.09
2023-04-03T21:05:35.113Z,9.92
2023-04-03T21:08:21.738Z,9.52
2023-04-03T21:11:08.172Z,9.62
2023-04-03T21:13:54.780Z,9.81
2023-04-03T21:16:21.864Z,9.69
2023-04-03T21:18:53.845Z,9.68
2023-04-03T21:21:24.571Z,9.63
2023-04-03T21:23:52.721Z,9.90
2023-04-03T21:26:21.629Z,9.90
2023-04-03T21:28:55.006Z,9.67
2023-04-03T21:31:22.349Z,9.82
2023-04-03T21:33:49.910Z,9.89
2023-04-03T21:36:17.040Z,9.52
2023-04-03T21:38:46.033Z,9.60
2023-04-03T21:41:13.151Z,9.17
2023-04-03T21:43:40.207Z,9.00
2023-04-03T21:46:07.438Z,9.09
2023-04-03T21:48:36.195Z,9.13
2023-04-03T21:51:03.802Z,9.05
2023-04-03T21:53:33.703Z,9.17
2023-04-03T21:56:02.621Z,9.10
2023-04-03T21:58:33.476Z,9.09
2023-04-03T22:01:13.737Z,8.98
2023-04-03T22:03:43.944Z,8.94
2023-04-03T22:06:12.208Z,8.99
2023-04-03T22:08:39.479Z,8.92
2023-04-03T22:11:07.617Z,8.87
2023-04-03T22:13:34.773Z,9.03
2023-04-03T22:16:02.457Z,9.09
2023-04-03T22:18:29.837Z,9.16
2023-04-03T22:20:57.323Z,9.13
2023-04-03T22:23:24.561Z,9.08
2023-04-03T22:26:01.556Z,9.03
2023-04-03T22:28:29.092Z,9.18
2023-04-03T22:30:56.548Z,9.13
2023-04-03T22:33:23.601Z,9.09
2023-04-03T22:35:51.132Z,9.20
2023-04-03T22:38:18.741Z,9.13
2023-04-03T22:40:46.046Z,9.19
2023-04-03T22:43:13.322Z,9.19
2023-04-03T22:45:47.303Z,9.32
2023-04-03T22:48:15.163Z,9.04
2023-04-03T22:50:42.529Z,9.08
2023-04-03T22:53:10.166Z,9.12
2023-04-03T22:55:38.230Z,8.99
2023-04-03T22:58:05.694Z,8.90
2023-04-03T23:00:32.945Z,9.05
2023-04-03T23:03:01.450Z,8.85
2023-04-03T23:05:28.974Z,8.92
2023-04-03T23:07:56.132Z,8.95
2023-04-03T23:10:23.438Z,8.78
2023-04-03T23:12:50.921Z,8.80
2023-04-03T23:15:19.495Z,8.74
2023-04-03T23:17:47.134Z,8.60
2023-04-03T23:20:14.626Z,8.52
2023-04-03T23:22:42.897Z,8.46
2023-04-03T23:25:10.613Z,8.36
2023-04-03T23:27:38.032Z,8.38
2023-04-03T23:30:05.716Z,8.32
2023-04-03T23:32:33.008Z,8.19
2023-04-03T23:35:00.053Z,8.37
2023-04-03T23:37:27.354Z,8.39
2023-04-03T23:39:54.527Z,8.21
2023-04-03T23:42:21.613Z,8.17
2023-04-03T23:44:48.977Z,8.09
2023-04-03T23:47:16.478Z,8.15
2023-04-03T23:49:43.505Z,8.17
2023-04-03T23:52:10.697Z,8.05
2023-04-03T23:54:37.819Z,8.31
2023-04-03T23:57:04.913Z,8.26
2023-04-03T23:59:32.236Z,8.30
